Princeton's Hourly Summary for Thursday, July 5, 2018
Hour Temp
(f)
RH
(%)
Solar Rad.
(MJ/m2)
Rainfall
(in)
Wind
(mph)
7/5/2018 12:00 AM 80 67 0 0 4.11
7/5/2018 1:00 AM 78 72 0 0 4.01
7/5/2018 2:00 AM 77 73 0 0 1.27
7/5/2018 3:00 AM 75 79 0 0 0
7/5/2018 4:00 AM 74 82 0 0 0
7/5/2018 5:00 AM 73 84 0 0 0.36
7/5/2018 6:00 AM 72 88 0 0 0.01
7/5/2018 7:00 AM 72 99 0.03 0 0
7/5/2018 8:00 AM 75 76 0.24 0 0
7/5/2018 9:00 AM 79 69 1.12 0 0.59
7/5/2018 10:00 AM 82 62 1.85 0 1.26
7/5/2018 11:00 AM 85 55 2.53 0 2.01
7/5/2018 12:00 PM 87 50 2.98 0 2.24
7/5/2018 1:00 PM 90 44 3.12 0 2.86
7/5/2018 2:00 PM 92 39 3.46 0 2.79
7/5/2018 3:00 PM 94 39 3.1 0 2.64
7/5/2018 4:00 PM 93 39 2.4 0 2.9
7/5/2018 5:00 PM 94 39 2.34 0 2.14
7/5/2018 6:00 PM 94 35 1.36 0 2.54
7/5/2018 7:00 PM 90 42 0.52 0 2.3
7/5/2018 8:00 PM 87 56 0.32 0 2.29
7/5/2018 9:00 PM 86 58 0.06 0 1.04
7/5/2018 10:00 PM 84 59 0 0 1.44
7/5/2018 11:00 PM 82 64 0 0 0.35
Data Summary 83 61 25.43 0.00 1.63